Time;durP1;ratioP1;P1;durP2;ratioP2;P2;SDS_P1;SDS_P2;PMS_P1;PMS_P2;Temp;Humidity;BMP_temperature;BMP_pressure;BME280_temperature;BME280_humidity;BME280_pressure;Samples;Min_cycle;Max_cycle;Signal;HPM_P1;HPM_P2
2023/10/29 00:00:10;;;;;;;6.40;3.77;;;10.70;99.20;;;;;;5087528;28;20433;-72
2023/10/29 00:02:36;;;;;;;6.13;3.78;;;10.70;99.60;;;;;;5087350;28;20410;-72
2023/10/29 00:05:01;;;;;;;7.60;3.90;;;10.70;99.80;;;;;;5086704;28;20394;-72
2023/10/29 00:07:27;;;;;;;9.30;3.97;;;10.70;99.90;;;;;;5086332;28;20497;-72
2023/10/29 00:09:53;;;;;;;7.50;3.60;;;10.70;99.90;;;;;;5086848;28;20891;-71
2023/10/29 00:12:18;;;;;;;6.28;3.75;;;10.70;99.90;;;;;;5086790;28;20551;-72
2023/10/29 00:14:44;;;;;;;7.20;3.67;;;10.70;99.90;;;;;;5087052;28;21318;-71
2023/10/29 00:17:09;;;;;;;6.43;3.63;;;10.70;99.90;;;;;;5083943;28;20798;-71
2023/10/29 00:19:35;;;;;;;6.22;3.90;;;10.70;99.90;;;;;;5082023;28;20491;-71
2023/10/29 00:22:01;;;;;;;6.53;3.87;;;10.80;99.90;;;;;;5088816;28;20426;-72
2023/10/29 00:24:27;;;;;;;7.38;4.00;;;10.80;99.90;;;;;;5088980;28;20959;-72
2023/10/29 00:26:53;;;;;;;8.68;4.00;;;10.80;99.90;;;;;;5091039;28;20394;-72
2023/10/29 00:29:18;;;;;;;7.27;4.10;;;10.80;99.90;;;;;;5089004;28;20440;-71
2023/10/29 00:31:44;;;;;;;8.02;3.85;;;10.80;99.90;;;;;;5090766;28;20400;-71
2023/10/29 00:34:10;;;;;;;6.40;3.75;;;10.80;99.90;;;;;;5087647;28;20401;-71
2023/10/29 00:36:35;;;;;;;8.73;4.00;;;10.80;99.90;;;;;;5079521;28;20459;-71
2023/10/29 00:39:01;;;;;;;8.23;3.85;;;10.80;99.90;;;;;;5090124;28;20398;-71
2023/10/29 00:41:27;;;;;;;5.73;3.47;;;10.80;99.90;;;;;;5090227;28;20478;-71
2023/10/29 00:43:53;;;;;;;9.45;3.92;;;10.90;99.90;;;;;;5088359;28;20489;-71
2023/10/29 00:46:19;;;;;;;6.30;3.60;;;10.90;99.90;;;;;;5090749;28;20427;-71
2023/10/29 00:48:45;;;;;;;7.37;3.63;;;10.90;99.90;;;;;;5090105;28;20444;-70
2023/10/29 00:51:11;;;;;;;7.97;3.78;;;10.90;99.90;;;;;;5089873;28;20390;-70
2023/10/29 00:53:37;;;;;;;7.40;3.70;;;10.90;99.90;;;;;;5089828;28;21424;-71
2023/10/29 00:56:04;;;;;;;7.43;3.80;;;10.90;99.90;;;;;;5076519;28;20426;-71
2023/10/29 00:58:30;;;;;;;5.88;3.80;;;10.90;99.90;;;;;;5089794;28;20394;-71
2023/10/29 01:00:55;;;;;;;8.48;3.88;;;10.90;99.90;;;;;;5090071;28;20475;-71
2023/10/29 01:03:22;;;;;;;5.53;3.60;;;10.90;99.90;;;;;;5090036;28;20390;-71
2023/10/29 01:05:48;;;;;;;5.47;3.50;;;10.90;99.90;;;;;;5089828;28;20493;-71
2023/10/29 01:08:15;;;;;;;6.10;3.97;;;10.90;99.90;;;;;;5089194;28;20398;-71
2023/10/29 01:10:40;;;;;;;4.88;3.70;;;10.90;99.90;;;;;;5089235;28;20405;-71
2023/10/29 01:13:06;;;;;;;8.13;3.78;;;10.90;99.90;;;;;;5081753;28;20892;-71
2023/10/29 01:15:33;;;;;;;6.32;3.85;;;10.90;99.90;;;;;;5084257;28;21582;-71
2023/10/29 01:17:59;;;;;;;8.32;3.75;;;10.90;99.90;;;;;;5088244;28;20414;-72
2023/10/29 01:20:24;;;;;;;5.72;3.58;;;10.90;99.90;;;;;;5087288;28;20935;-72
2023/10/29 01:22:50;;;;;;;8.47;3.80;;;10.90;99.90;;;;;;5088593;28;20460;-72
2023/10/29 01:25:17;;;;;;;5.53;3.75;;;10.90;99.90;;;;;;5070653;28;20783;-72
2023/10/29 01:27:44;;;;;;;6.07;3.60;;;10.90;99.90;;;;;;5089555;28;20521;-72
2023/10/29 01:30:11;;;;;;;5.95;3.97;;;10.90;99.90;;;;;;5088650;28;20481;-73
2023/10/29 01:32:38;;;;;;;8.18;4.03;;;11.00;99.90;;;;;;5087186;28;20398;-73
2023/10/29 01:35:04;;;;;;;7.43;3.97;;;11.00;99.90;;;;;;5088008;28;20429;-73
2023/10/29 01:37:30;;;;;;;6.75;4.20;;;11.00;99.90;;;;;;5088360;28;20406;-73
2023/10/29 01:39:55;;;;;;;6.93;4.30;;;11.00;99.90;;;;;;5088982;28;20405;-72
2023/10/29 01:42:21;;;;;;;6.55;4.20;;;11.00;99.90;;;;;;5088140;28;20475;-72
2023/10/29 01:44:47;;;;;;;5.33;4.10;;;11.10;99.90;;;;;;5087953;28;20814;-72
2023/10/29 01:47:12;;;;;;;6.38;4.30;;;11.00;99.90;;;;;;5088105;28;21042;-72
2023/10/29 01:49:38;;;;;;;5.37;4.00;;;11.10;99.90;;;;;;5070843;28;20515;-72
2023/10/29 01:52:04;;;;;;;6.72;4.35;;;11.10;99.90;;;;;;5087757;28;20398;-73
2023/10/29 01:54:30;;;;;;;6.35;4.30;;;11.10;99.90;;;;;;5087399;28;20849;-73
2023/10/29 01:56:55;;;;;;;7.03;4.60;;;11.10;99.90;;;;;;5089638;28;20402;-72
2023/10/29 01:59:21;;;;;;;6.33;4.30;;;11.20;99.90;;;;;;5088811;28;20416;-72
2023/10/29 02:01:47;;;;;;;7.45;4.50;;;11.20;99.90;;;;;;5087261;28;20800;-72
2023/10/29 02:04:12;;;;;;;7.83;4.60;;;11.20;99.90;;;;;;5088138;28;20768;-72
2023/10/29 02:06:39;;;;;;;6.20;4.07;;;11.20;99.90;;;;;;5087587;28;21140;-72
2023/10/29 02:09:09;;;;;;;6.50;3.70;;;11.30;99.90;;;;;;5088761;28;20390;-72
2023/10/29 02:11:36;;;;;;;5.25;3.50;;;11.30;99.90;;;;;;5086905;28;20879;-72
2023/10/29 02:14:02;;;;;;;5.45;3.80;;;11.40;99.90;;;;;;5086022;28;20430;-72
2023/10/29 02:16:28;;;;;;;6.03;4.05;;;11.40;99.90;;;;;;5080184;28;20744;-73
2023/10/29 02:18:53;;;;;;;6.18;4.18;;;11.40;99.90;;;;;;5097054;28;20431;-72
2023/10/29 02:21:20;;;;;;;5.30;4.33;;;11.50;99.90;;;;;;5086901;28;20426;-73
2023/10/29 02:23:46;;;;;;;8.05;4.60;;;11.50;99.90;;;;;;5088029;28;20486;-72
2023/10/29 02:26:12;;;;;;;5.78;4.70;;;11.60;99.90;;;;;;5087651;28;20843;-72
2023/10/29 02:28:38;;;;;;;5.90;4.30;;;11.60;99.90;;;;;;5088208;28;20528;-72
2023/10/29 02:31:03;;;;;;;5.77;4.57;;;11.70;99.90;;;;;;5086789;28;20481;-72
2023/10/29 02:33:30;;;;;;;5.95;4.20;;;11.70;99.90;;;;;;5083580;28;20409;-72
2023/10/29 02:35:56;;;;;;;6.13;4.50;;;11.80;99.90;;;;;;5086518;28;20424;-72
2023/10/29 02:38:23;;;;;;;6.73;4.63;;;11.90;99.90;;;;;;5086995;28;20888;-73
2023/10/29 02:40:49;;;;;;;6.43;4.20;;;11.90;99.90;;;;;;5087700;28;20429;-72
2023/10/29 02:43:15;;;;;;;7.18;4.03;;;11.90;99.90;;;;;;5087600;28;20405;-73
2023/10/29 02:45:41;;;;;;;7.18;4.22;;;11.90;99.90;;;;;;5086941;28;20957;-73
2023/10/29 02:48:07;;;;;;;6.17;4.27;;;11.90;99.90;;;;;;5086555;28;20414;-72
2023/10/29 02:50:35;;;;;;;6.22;4.30;;;11.90;99.90;;;;;;5069443;28;20507;-72
2023/10/29 02:53:01;;;;;;;5.15;4.00;;;12.00;99.90;;;;;;5087254;28;20400;-73
2023/10/29 02:55:26;;;;;;;5.97;3.80;;;12.00;99.90;;;;;;5087644;28;20771;-72
2023/10/29 02:57:52;;;;;;;5.73;3.43;;;12.00;99.90;;;;;;5087553;28;20398;-72
2023/10/29 03:00:18;;;;;;;5.20;3.40;;;12.00;99.90;;;;;;5087342;28;20422;-72
2023/10/29 03:02:44;;;;;;;6.90;3.43;;;12.00;99.90;;;;;;5083194;28;20831;-72
2023/10/29 03:05:11;;;;;;;5.15;2.92;;;12.10;99.90;;;;;;5086594;28;20446;-72
2023/10/29 03:07:37;;;;;;;7.97;3.60;;;12.10;99.90;;;;;;5086426;28;20410;-72
2023/10/29 03:10:04;;;;;;;5.07;3.15;;;12.10;99.90;;;;;;5086305;28;20416;-72
2023/10/29 03:12:30;;;;;;;6.18;3.35;;;12.10;99.90;;;;;;5085098;28;20409;-72
2023/10/29 03:14:56;;;;;;;4.90;3.05;;;12.10;99.90;;;;;;5086275;28;20394;-72
2023/10/29 03:17:21;;;;;;;6.13;2.95;;;12.10;99.90;;;;;;5086412;28;20475;-72
2023/10/29 03:19:47;;;;;;;4.07;2.63;;;12.10;99.90;;;;;;5086619;28;20941;-72
2023/10/29 03:22:13;;;;;;;5.50;2.75;;;12.00;99.90;;;;;;5085878;28;20915;-72
2023/10/29 03:24:39;;;;;;;3.70;2.50;;;12.10;99.90;;;;;;5087273;28;20394;-72
2023/10/29 03:27:04;;;;;;;3.63;2.50;;;12.10;99.90;;;;;;5087498;28;20414;-72
2023/10/29 03:29:30;;;;;;;5.82;2.75;;;12.00;99.90;;;;;;5087610;28;20911;-72
2023/10/29 03:31:56;;;;;;;4.63;2.45;;;12.10;99.90;;;;;;5087677;28;20417;-72
2023/10/29 03:34:21;;;;;;;6.00;2.30;;;12.10;99.90;;;;;;5087588;28;20480;-72
2023/10/29 03:36:47;;;;;;;4.80;2.70;;;12.10;99.90;;;;;;5083903;28;20401;-72
2023/10/29 03:39:13;;;;;;;4.47;2.40;;;12.10;99.90;;;;;;5087753;28;20473;-72
2023/10/29 03:41:38;;;;;;;4.45;2.10;;;12.10;99.90;;;;;;5086085;28;20960;-72
2023/10/29 03:44:04;;;;;;;3.93;2.10;;;12.10;99.90;;;;;;5086716;28;20477;-72
2023/10/29 03:46:30;;;;;;;5.10;2.38;;;12.10;99.90;;;;;;5087142;28;20412;-72
2023/10/29 03:48:55;;;;;;;5.27;1.87;;;12.10;99.90;;;;;;5086639;28;20405;-72
2023/10/29 03:51:21;;;;;;;4.57;2.00;;;12.10;99.90;;;;;;5086602;28;20398;-72
2023/10/29 03:53:47;;;;;;;4.50;2.00;;;12.10;99.90;;;;;;5081374;28;20406;-72
2023/10/29 03:56:12;;;;;;;4.32;1.77;;;12.10;99.90;;;;;;5084869;28;20983;-72
2023/10/29 03:58:38;;;;;;;3.60;1.80;;;12.10;99.90;;;;;;5088353;28;20924;-71
2023/10/29 04:01:04;;;;;;;3.80;1.70;;;12.10;99.90;;;;;;5089019;28;20437;-72
2023/10/29 04:03:30;;;;;;;6.13;1.80;;;12.10;99.90;;;;;;5091434;28;20393;-72
2023/10/29 04:05:56;;;;;;;4.10;1.85;;;12.10;99.90;;;;;;5090614;28;21268;-72
2023/10/29 04:08:22;;;;;;;5.20;1.73;;;12.10;99.90;;;;;;5089910;28;20413;-72
2023/10/29 04:10:48;;;;;;;3.00;1.33;;;12.10;99.90;;;;;;5090658;28;20421;-73
2023/10/29 04:13:14;;;;;;;4.80;1.60;;;12.10;99.90;;;;;;5091191;28;20401;-72
2023/10/29 04:15:39;;;;;;;3.23;1.30;;;12.10;99.90;;;;;;5089248;28;20413;-73
2023/10/29 04:18:05;;;;;;;10.03;2.30;;;12.10;99.90;;;;;;5089861;28;20410;-73
2023/10/29 04:20:31;;;;;;;5.17;1.47;;;12.20;99.90;;;;;;5089292;28;20437;-72
2023/10/29 04:22:56;;;;;;;3.80;1.70;;;12.20;99.90;;;;;;5080092;28;20784;-71
2023/10/29 04:25:22;;;;;;;3.92;1.63;;;12.20;99.90;;;;;;5084505;28;20818;-72
2023/10/29 04:27:48;;;;;;;4.80;1.50;;;12.20;99.90;;;;;;5083055;28;20404;-72
2023/10/29 04:30:13;;;;;;;3.22;1.33;;;12.30;99.90;;;;;;5089847;28;20402;-72
2023/10/29 04:32:39;;;;;;;3.63;1.30;;;12.20;99.90;;;;;;5089263;28;20417;-73
2023/10/29 04:35:05;;;;;;;4.63;1.52;;;12.30;99.90;;;;;;5089432;28;20839;-73
2023/10/29 04:37:31;;;;;;;6.65;1.30;;;12.30;99.90;;;;;;5089676;28;20401;-72
2023/10/29 04:39:56;;;;;;;4.20;1.20;;;12.30;99.90;;;;;;5088591;28;20404;-73
2023/10/29 04:42:22;;;;;;;4.47;1.38;;;12.30;99.90;;;;;;5089593;28;20482;-72
2023/10/29 04:44:47;;;;;;;2.47;1.20;;;12.30;99.90;;;;;;5089408;28;20459;-73
2023/10/29 04:47:13;;;;;;;3.83;1.10;;;12.30;99.90;;;;;;5088454;28;20402;-73
2023/10/29 04:49:39;;;;;;;4.07;1.30;;;12.30;99.90;;;;;;5088733;28;20405;-73
2023/10/29 04:52:05;;;;;;;4.10;1.27;;;12.30;99.90;;;;;;5089086;28;20410;-73
2023/10/29 04:54:30;;;;;;;3.63;1.17;;;12.30;99.90;;;;;;5089664;28;20810;-73
2023/10/29 04:56:56;;;;;;;4.13;1.10;;;12.30;99.90;;;;;;5071733;28;20414;-73
2023/10/29 04:59:21;;;;;;;5.45;1.33;;;12.40;99.90;;;;;;5088692;28;20406;-72
2023/10/29 05:01:47;;;;;;;4.70;1.20;;;12.40;99.90;;;;;;5088941;28;20459;-71
2023/10/29 05:04:13;;;;;;;5.70;1.35;;;12.40;99.90;;;;;;5088111;28;21146;-71
2023/10/29 05:06:38;;;;;;;4.93;1.43;;;12.40;99.90;;;;;;5089832;28;20774;-75
2023/10/29 05:09:04;;;;;;;9.57;1.42;;;12.40;99.90;;;;;;5089547;28;20426;-75
2023/10/29 05:11:31;;;;;;;3.70;0.40;;;12.30;99.90;;;;;;5072129;28;20438;-75
2023/10/29 05:13:56;;;;;;;2.90;0.45;;;12.10;99.90;;;;;;5089587;28;20405;-75
2023/10/29 05:16:22;;;;;;;4.10;0.40;;;11.90;99.90;;;;;;5088910;28;20463;-75
2023/10/29 05:18:48;;;;;;;16.57;0.93;;;11.70;99.90;;;;;;5089300;28;20482;-75
2023/10/29 05:21:13;;;;;;;2.95;0.40;;;11.50;99.90;;;;;;5088679;28;20422;-75
2023/10/29 05:23:39;;;;;;;3.33;0.50;;;11.40;99.90;;;;;;5088119;28;20998;-75
2023/10/29 05:26:05;;;;;;;2.47;0.40;;;11.30;99.90;;;;;;5089358;28;20423;-75
2023/10/29 05:28:30;;;;;;;2.60;0.30;;;11.30;99.90;;;;;;5088982;28;20398;-74
2023/10/29 05:30:56;;;;;;;3.47;0.30;;;11.30;99.90;;;;;;5088815;28;21013;-75
2023/10/29 05:33:22;;;;;;;3.27;0.30;;;11.20;99.90;;;;;;5087895;28;20421;-75
2023/10/29 05:35:47;;;;;;;2.20;0.40;;;11.20;99.90;;;;;;5087989;28;20406;-75
2023/10/29 05:38:13;;;;;;;2.55;0.50;;;11.20;99.90;;;;;;5089545;28;20406;-75
2023/10/29 05:40:38;;;;;;;1.30;0.30;;;11.20;99.90;;;;;;5087842;28;20430;-75
2023/10/29 05:43:04;;;;;;;4.43;0.65;;;11.20;99.90;;;;;;5087791;28;20398;-74
2023/10/29 05:45:30;;;;;;;3.55;0.52;;;11.20;99.90;;;;;;5087806;28;20438;-74
2023/10/29 05:47:56;;;;;;;3.07;0.77;;;11.20;99.90;;;;;;5087668;28;20761;-75
2023/10/29 05:50:23;;;;;;;4.10;0.80;;;11.20;99.90;;;;;;5087980;28;20414;-74
2023/10/29 05:52:49;;;;;;;3.42;0.88;;;11.30;99.90;;;;;;5070757;28;21130;-74
2023/10/29 05:55:15;;;;;;;3.53;0.60;;;11.40;99.90;;;;;;5085398;28;21149;-74
2023/10/29 05:57:40;;;;;;;4.13;0.70;;;11.40;99.90;;;;;;5085190;28;20408;-74
2023/10/29 06:00:07;;;;;;;2.92;0.70;;;11.40;99.90;;;;;;5089369;28;20773;-74
2023/10/29 06:02:33;;;;;;;3.53;0.88;;;11.50;99.90;;;;;;5087361;28;20771;-74
2023/10/29 06:04:58;;;;;;;4.75;0.70;;;11.50;99.90;;;;;;5087995;28;20402;-74
2023/10/29 06:07:24;;;;;;;3.33;0.47;;;11.50;99.90;;;;;;5086880;28;20966;-74
2023/10/29 06:09:50;;;;;;;2.73;0.60;;;11.50;99.90;;;;;;5087755;28;20410;-74
2023/10/29 06:12:18;;;;;;;2.00;0.50;;;11.50;99.90;;;;;;5087364;28;20417;-74
2023/10/29 06:14:45;;;;;;;2.85;0.68;;;11.50;99.90;;;;;;5088506;28;20913;-74
2023/10/29 06:17:11;;;;;;;3.75;0.40;;;11.50;99.90;;;;;;5088483;28;20439;-74
2023/10/29 06:19:36;;;;;;;2.20;0.50;;;11.50;99.90;;;;;;5087108;28;20406;-74
2023/10/29 06:22:05;;;;;;;3.37;0.40;;;11.50;99.90;;;;;;5086604;28;20430;-74
2023/10/29 06:24:31;;;;;;;2.75;0.40;;;11.50;99.90;;;;;;5088140;28;20410;-74
2023/10/29 06:26:56;;;;;;;3.90;0.50;;;11.40;99.90;;;;;;5088204;28;20409;-74
2023/10/29 06:29:22;;;;;;;1.70;0.40;;;11.50;99.90;;;;;;5087496;28;20490;-74
2023/10/29 06:31:48;;;;;;;1.75;0.40;;;11.50;99.90;;;;;;5088153;28;20776;-74
2023/10/29 06:34:14;;;;;;;2.47;0.70;;;11.50;99.90;;;;;;5087496;28;20398;-74
2023/10/29 06:36:39;;;;;;;2.92;0.68;;;11.50;99.90;;;;;;5087863;28;20406;-74
2023/10/29 06:39:05;;;;;;;4.30;0.70;;;11.50;99.90;;;;;;5088437;28;20497;-74
2023/10/29 06:41:31;;;;;;;4.30;0.57;;;11.50;99.90;;;;;;5088151;28;20973;-74
2023/10/29 06:43:56;;;;;;;3.05;0.47;;;11.60;99.90;;;;;;5087218;28;20778;-74
2023/10/29 06:46:22;;;;;;;2.20;0.60;;;11.60;99.90;;;;;;5069608;28;20414;-74
2023/10/29 06:48:47;;;;;;;4.47;0.73;;;11.70;99.90;;;;;;5088497;28;20843;-74
2023/10/29 06:51:15;;;;;;;2.03;0.40;;;11.70;99.90;;;;;;5087981;28;20394;-73
2023/10/29 06:53:41;;;;;;;4.20;0.60;;;11.70;99.90;;;;;;5086226;28;20438;-74
2023/10/29 06:56:07;;;;;;;2.40;0.30;;;11.80;99.90;;;;;;5087633;28;20479;-73
2023/10/29 06:58:33;;;;;;;2.47;0.65;;;11.80;99.90;;;;;;5086731;28;20410;-73
2023/10/29 07:01:09;;;;;;;1.88;0.40;;;11.90;99.90;;;;;;5070058;28;20460;-73
2023/10/29 07:03:35;;;;;;;3.40;0.60;;;11.90;99.90;;;;;;5087993;28;20839;-73
2023/10/29 07:06:08;;;;;;;2.83;0.47;;;11.80;99.90;;;;;;5087800;28;20397;-73
2023/10/29 07:08:35;;;;;;;4.63;0.80;;;11.80;99.90;;;;;;5087580;28;20489;-73
2023/10/29 07:11:04;;;;;;;3.90;0.75;;;11.80;99.90;;;;;;5086348;28;20406;-73
2023/10/29 07:13:31;;;;;;;5.15;0.70;;;11.80;99.90;;;;;;5086624;28;20417;-73
2023/10/29 07:15:59;;;;;;;2.95;0.50;;;11.80;99.90;;;;;;5087163;28;20406;-73
2023/10/29 07:18:25;;;;;;;1.73;0.40;;;11.90;99.90;;;;;;5087443;28;20439;-73
2023/10/29 07:20:52;;;;;;;2.90;0.60;;;11.90;99.90;;;;;;5087241;28;20418;-73
2023/10/29 07:23:19;;;;;;;2.70;0.40;;;11.80;99.90;;;;;;5087685;28;20746;-73
2023/10/29 07:25:44;;;;;;;3.70;0.40;;;11.90;99.90;;;;;;5069604;28;20460;-73
2023/10/29 07:28:10;;;;;;;2.73;0.40;;;11.90;99.90;;;;;;5085756;28;20935;-73
2023/10/29 07:30:36;;;;;;;3.17;0.40;;;12.00;99.90;;;;;;5089294;28;20427;-75
2023/10/29 07:33:01;;;;;;;2.47;0.30;;;12.00;99.90;;;;;;5091929;28;20405;-75
2023/10/29 07:35:27;;;;;;;3.45;0.50;;;12.10;99.90;;;;;;5090342;28;20433;-75
2023/10/29 07:37:52;;;;;;;1.37;0.23;;;12.20;99.90;;;;;;5091967;28;20823;-73
2023/10/29 07:40:18;;;;;;;2.92;0.30;;;12.20;99.90;;;;;;5090079;28;20401;-73
2023/10/29 07:42:43;;;;;;;2.07;0.30;;;12.30;99.90;;;;;;5089212;28;20417;-74
2023/10/29 07:45:10;;;;;;;3.13;0.57;;;12.30;99.90;;;;;;5090692;28;20421;-73
2023/10/29 07:47:36;;;;;;;2.78;0.45;;;12.30;99.90;;;;;;5083996;28;20404;-73
2023/10/29 07:50:02;;;;;;;2.72;0.40;;;12.40;99.90;;;;;;5089074;28;20401;-73
2023/10/29 07:52:28;;;;;;;3.10;0.38;;;12.40;99.90;;;;;;5087228;28;20402;-73
2023/10/29 07:54:54;;;;;;;1.73;0.50;;;12.40;99.90;;;;;;5085289;28;20495;-73
2023/10/29 07:57:21;;;;;;;2.30;0.40;;;12.50;99.90;;;;;;5084651;28;20457;-73
2023/10/29 07:59:46;;;;;;;3.70;0.32;;;12.50;99.90;;;;;;5089845;28;20413;-75
2023/10/29 08:02:12;;;;;;;4.85;0.50;;;12.60;99.90;;;;;;5072515;28;20425;-75
2023/10/29 08:04:38;;;;;;;2.43;0.30;;;12.70;99.90;;;;;;5088575;28;20413;-76
2023/10/29 08:07:04;;;;;;;2.08;0.50;;;12.70;99.90;;;;;;5091157;28;20911;-74
2023/10/29 08:09:29;;;;;;;4.45;0.60;;;12.70;99.90;;;;;;5091569;28;20406;-74
2023/10/29 08:11:55;;;;;;;2.33;0.47;;;12.70;98.90;;;;;;5089835;28;20404;-74
2023/10/29 08:14:20;;;;;;;3.38;0.40;;;12.80;97.80;;;;;;5079981;28;20433;-74
2023/10/29 08:16:46;;;;;;;4.90;0.40;;;12.80;97.30;;;;;;5085597;28;20415;-74
2023/10/29 08:19:11;;;;;;;1.90;0.30;;;12.80;96.80;;;;;;5087925;28;21243;-74
2023/10/29 08:21:37;;;;;;;2.75;0.32;;;12.80;96.60;;;;;;5088858;28;20534;-74
2023/10/29 08:24:03;;;;;;;3.70;0.40;;;12.80;95.60;;;;;;5089765;28;20414;-74
2023/10/29 08:26:31;;;;;;;2.15;0.40;;;12.80;95.30;;;;;;5084671;28;20429;-74
2023/10/29 08:28:57;;;;;;;3.70;0.60;;;12.80;93.50;;;;;;5070957;28;20413;-74
2023/10/29 08:31:22;;;;;;;4.10;0.40;;;12.80;94.50;;;;;;5088239;28;20405;-74
2023/10/29 08:33:49;;;;;;;3.13;0.47;;;12.90;93.90;;;;;;5088219;28;20551;-74
2023/10/29 08:36:18;;;;;;;5.03;0.50;;;12.90;92.60;;;;;;5088095;28;20417;-75
2023/10/29 08:38:44;;;;;;;2.72;0.40;;;13.00;92.50;;;;;;5075801;28;20410;-74
2023/10/29 08:41:16;;;;;;;4.60;0.67;;;13.00;92.00;;;;;;5088427;28;20857;-75
2023/10/29 08:43:42;;;;;;;3.72;0.55;;;13.00;91.20;;;;;;5089026;28;20417;-72
2023/10/29 08:46:08;;;;;;;5.00;0.60;;;13.00;91.20;;;;;;5090185;28;20927;-72
2023/10/29 08:48:34;;;;;;;5.07;0.50;;;13.10;90.70;;;;;;5079178;28;21167;-72
2023/10/29 08:50:59;;;;;;;6.10;0.70;;;13.10;91.40;;;;;;5084871;28;20481;-73
2023/10/29 08:53:25;;;;;;;3.87;0.50;;;13.20;91.50;;;;;;5089715;28;20402;-73
2023/10/29 08:55:51;;;;;;;8.95;0.90;;;13.20;90.70;;;;;;5089259;28;20947;-73
2023/10/29 08:58:18;;;;;;;5.90;0.88;;;13.20;89.90;;;;;;5088666;28;20413;-73
2023/10/29 09:00:45;;;;;;;4.53;0.70;;;13.30;90.10;;;;;;5063870;28;20438;-74
2023/10/29 09:03:13;;;;;;;5.40;0.70;;;13.30;88.00;;;;;;5085257;28;20473;-74
2023/10/29 09:05:39;;;;;;;6.38;0.80;;;13.40;89.30;;;;;;5082655;28;20422;-74
2023/10/29 09:08:06;;;;;;;5.15;0.70;;;13.50;87.00;;;;;;5076657;28;20416;-75
2023/10/29 09:10:32;;;;;;;5.65;0.52;;;13.60;87.80;;;;;;5092216;28;20419;-74
2023/10/29 09:12:58;;;;;;;4.72;0.60;;;13.70;84.80;;;;;;5110769;27;20413;-75
2023/10/29 09:15:25;;;;;;;4.57;0.50;;;13.70;83.00;;;;;;5088101;28;20406;-75
2023/10/29 09:17:50;;;;;;;5.00;0.50;;;13.80;82.60;;;;;;5088492;28;20417;-75
2023/10/29 09:20:16;;;;;;;4.75;0.43;;;13.70;81.30;;;;;;5089647;28;20398;-74
2023/10/29 09:22:42;;;;;;;4.60;0.70;;;13.80;80.60;;;;;;5081249;28;20403;-75
2023/10/29 09:25:09;;;;;;;4.93;0.60;;;14.20;83.70;;;;;;5087845;28;20403;-75
2023/10/29 09:27:34;;;;;;;2.42;0.30;;;14.60;70.40;;;;;;5089530;28;21102;-75
2023/10/29 09:30:00;;;;;;;5.47;0.80;;;14.80;69.40;;;;;;5087834;28;20418;-75
2023/10/29 09:32:26;;;;;;;2.43;0.40;;;14.70;64.30;;;;;;5089799;28;20452;-75
2023/10/29 09:34:52;;;;;;;4.25;0.50;;;14.70;60.70;;;;;;5085764;28;20453;-75
2023/10/29 09:37:18;;;;;;;4.13;0.50;;;14.60;60.80;;;;;;5090065;28;20752;-75
2023/10/29 09:39:43;;;;;;;2.73;0.30;;;14.40;58.80;;;;;;5088646;28;20478;-75
2023/10/29 09:42:11;;;;;;;3.67;0.40;;;14.70;82.90;;;;;;5088532;28;20757;-75
2023/10/29 09:44:39;;;;;;;3.72;0.43;;;15.20;55.20;;;;;;5086970;28;20947;-75
2023/10/29 09:47:13;;;;;;;3.33;0.50;;;15.80;64.20;;;;;;5089561;28;20456;-75
2023/10/29 09:49:39;;;;;;;4.72;0.50;;;16.60;45.90;;;;;;5089017;28;20394;-75
2023/10/29 09:52:06;;;;;;;4.22;0.60;;;17.20;27.30;;;;;;5087470;28;20394;-75
2023/10/29 09:54:32;;;;;;;3.83;0.45;;;17.70;25.50;;;;;;5086132;28;20995;-75
2023/10/29 09:56:57;;;;;;;3.17;0.30;;;18.20;14.70;;;;;;5089567;28;20492;-75
2023/10/29 09:59:23;;;;;;;4.45;0.55;;;18.40;1.00;;;;;;5088222;28;20406;-75
2023/10/29 10:01:49;;;;;;;4.10;0.50;;;18.20;1.00;;;;;;5087568;28;20827;-75
2023/10/29 10:04:15;;;;;;;5.90;0.70;;;17.80;7.10;;;;;;5088496;28;20402;-75
2023/10/29 10:06:42;;;;;;;3.17;0.40;;;17.60;2.30;;;;;;5087152;28;20433;-74
2023/10/29 10:09:10;;;;;;;3.60;0.65;;;17.30;5.50;;;;;;5089140;28;20494;-75
2023/10/29 10:11:36;;;;;;;4.53;0.70;;;17.00;20.60;;;;;;5083894;28;20783;-74
2023/10/29 10:14:01;;;;;;;3.53;0.40;;;16.90;11.30;;;;;;5087659;28;20430;-74
2023/10/29 10:16:27;;;;;;;5.93;0.70;;;16.60;8.30;;;;;;5081843;28;20428;-74
2023/10/29 10:18:59;;;;;;;5.47;0.80;;;16.20;9.80;;;;;;5086552;28;20425;-74
2023/10/29 10:21:42;;;;;;;4.00;0.50;;;16.50;28.60;;;;;;5088759;28;20433;-74
2023/10/29 10:24:08;;;;;;;4.68;0.43;;;17.40;19.80;;;;;;5079599;28;20454;-74
2023/10/29 10:26:35;;;;;;;6.22;0.70;;;18.30;2.00;;;;;;5084119;28;20484;-75
2023/10/29 10:29:05;;;;;;;3.63;0.50;;;18.80;1.00;;;;;;5088845;28;20429;-74
2023/10/29 10:31:35;;;;;;;3.40;0.50;;;18.80;1.00;;;;;;5087882;28;20413;-74
2023/10/29 10:34:18;;;;;;;7.28;0.70;;;18.60;1.00;;;;;;5083572;28;20418;-74
2023/10/29 10:36:45;;;;;;;5.67;0.60;;;18.70;1.00;;;;;;5087407;28;21468;-74
2023/10/29 10:39:12;;;;;;;2.33;0.50;;;19.40;1.00;;;;;;5088236;28;20422;-75
2023/10/29 10:41:45;;;;;;;3.70;0.65;;;19.70;1.00;;;;;;5082631;28;20430;-75
2023/10/29 10:44:22;;;;;;;4.32;0.43;;;19.10;1.00;;;;;;5088360;28;20501;-74
2023/10/29 10:46:58;;;;;;;5.10;0.77;;;18.40;1.00;;;;;;5084308;28;20476;-74
2023/10/29 10:49:24;;;;;;;4.77;0.93;;;18.20;1.00;;;;;;5087269;28;20425;-71
2023/10/29 10:51:54;;;;;;;4.82;0.88;;;18.20;1.00;;;;;;5086457;28;20434;-71
2023/10/29 10:54:21;;;;;;;3.38;0.47;;;17.90;1.00;;;;;;5087849;28;20406;-71
2023/10/29 10:56:51;;;;;;;4.15;0.60;;;17.70;1.00;;;;;;5087556;28;20417;-73
2023/10/29 10:59:17;;;;;;;3.70;0.73;;;17.50;1.00;;;;;;5085441;28;20764;-73
2023/10/29 11:01:43;;;;;;;3.78;0.50;;;17.10;1.00;;;;;;5086493;28;20442;-73
2023/10/29 11:04:10;;;;;;;3.85;0.60;;;16.90;1.00;;;;;;5058732;28;20425;-69
2023/10/29 11:06:36;;;;;;;6.65;0.68;;;16.80;1.00;;;;;;5085176;28;21148;-67
2023/10/29 11:09:05;;;;;;;4.10;0.80;;;17.00;1.00;;;;;;5084922;28;20403;-70
2023/10/29 11:11:43;;;;;;;4.35;0.50;;;17.10;1.00;;;;;;5110665;28;20963;-72
2023/10/29 11:14:13;;;;;;;5.47;0.60;;;17.20;1.00;;;;;;5089133;28;20464;-73
2023/10/29 11:16:49;;;;;;;3.83;0.80;;;17.40;1.00;;;;;;5080256;28;20406;-74
2023/10/29 11:19:39;;;;;;;6.43;0.95;;;17.70;1.00;;;;;;5086322;28;20501;-71
2023/10/29 11:22:29;;;;;;;4.40;0.85;;;17.70;1.00;;;;;;5087031;28;20454;-71
2023/10/29 11:25:11;;;;;;;3.08;0.60;;;17.80;1.00;;;;;;5087214;28;20414;-74
2023/10/29 11:27:43;;;;;;;5.07;0.70;;;17.70;1.00;;;;;;5078170;28;20410;-74
2023/10/29 11:30:14;;;;;;;4.68;0.90;;;17.80;1.00;;;;;;5087587;28;20465;-74
2023/10/29 11:32:44;;;;;;;3.67;0.65;;;17.50;1.00;;;;;;5086459;28;21308;-71
2023/10/29 11:35:16;;;;;;;4.18;0.77;;;17.20;1.00;;;;;;5087345;28;21753;-70
2023/10/29 11:37:42;;;;;;;5.43;0.98;;;17.10;1.00;;;;;;5086577;28;21153;-72
2023/10/29 11:40:23;;;;;;;4.63;0.70;;;17.10;1.00;;;;;;5083733;28;20488;-73
2023/10/29 11:42:54;;;;;;;5.93;0.90;;;16.80;1.00;;;;;;5085582;28;20424;-71
2023/10/29 11:45:31;;;;;;;5.65;0.90;;;16.60;1.00;;;;;;5085905;28;20422;-73
2023/10/29 11:48:09;;;;;;;5.47;0.70;;;16.90;1.00;;;;;;5087656;28;20884;-73
2023/10/29 11:50:39;;;;;;;5.68;1.17;;;17.10;1.00;;;;;;5069207;28;20406;-74
2023/10/29 11:53:05;;;;;;;7.28;1.30;;;17.20;1.00;;;;;;5086924;28;20497;-74
2023/10/29 11:55:42;;;;;;;7.50;1.10;;;16.90;1.00;;;;;;5069499;28;20501;-74
2023/10/29 11:58:08;;;;;;;5.13;0.70;;;16.70;1.00;;;;;;5085929;28;21242;-74
2023/10/29 12:00:40;;;;;;;6.70;1.05;;;16.40;1.00;;;;;;5087106;28;20426;-74
2023/10/29 12:03:11;;;;;;;4.85;0.90;;;16.20;1.00;;;;;;5087137;28;20406;-75
2023/10/29 12:05:37;;;;;;;6.57;1.10;;;16.00;1.00;;;;;;5086842;28;20481;-75
2023/10/29 12:08:04;;;;;;;4.97;1.08;;;15.90;1.00;;;;;;5086028;28;20990;-74
2023/10/29 12:10:30;;;;;;;6.68;0.98;;;15.80;1.00;;;;;;5084913;28;20449;-75
2023/10/29 12:12:56;;;;;;;5.87;0.80;;;15.80;1.00;;;;;;5086466;28;20822;-75
2023/10/29 12:15:25;;;;;;;5.72;0.80;;;15.90;1.00;;;;;;5085525;28;20403;-75
2023/10/29 12:17:50;;;;;;;6.70;0.80;;;15.80;1.00;;;;;;5078485;28;20806;-75
2023/10/29 12:20:25;;;;;;;7.50;1.17;;;15.80;1.00;;;;;;5090770;28;20398;-75
2023/10/29 12:22:57;;;;;;;5.22;0.98;;;15.70;1.00;;;;;;5089311;28;20733;-75
2023/10/29 12:25:23;;;;;;;5.80;1.13;;;15.60;3.10;;;;;;5071756;28;20450;-75
2023/10/29 12:27:50;;;;;;;6.38;1.27;;;15.50;2.30;;;;;;5089330;28;20410;-75
2023/10/29 12:30:42;;;;;;;9.30;1.30;;;15.40;1.90;;;;;;5088731;28;21169;-74
2023/10/29 12:33:27;;;;;;;6.75;1.30;;;15.30;1.60;;;;;;5090487;28;20940;-75
2023/10/29 12:35:59;;;;;;;6.53;1.17;;;15.30;2.70;;;;;;5082537;28;21020;-74
2023/10/29 12:38:25;;;;;;;8.65;1.50;;;15.30;1.00;;;;;;5087020;28;20793;-75
2023/10/29 12:41:06;;;;;;;7.10;0.80;;;15.20;1.00;;;;;;5088920;28;20418;-74
2023/10/29 12:43:42;;;;;;;7.37;1.17;;;15.20;1.00;;;;;;5088882;28;21146;-75
2023/10/29 12:46:10;;;;;;;7.38;1.23;;;15.20;2.20;;;;;;5089096;28;20414;-75